Time;durP1;ratioP1;P1;durP2;ratioP2;P2;SDS_P1;SDS_P2;PMS_P1;PMS_P2;Temp;Humidity;BMP_temperature;BMP_pressure;BME280_temperature;BME280_humidity;BME280_pressure;Samples;Min_cycle;Max_cycle;Signal;HPM_P1;HPM_P2
2023/05/18 00:00:09;;;;;;;11.32;5.97;;;13.50;99.90;;;;;;5088630;28;20055;-72
2023/05/18 00:02:39;;;;;;;8.70;6.35;;;13.50;99.90;;;;;;5114396;27;20116;-72
2023/05/18 00:05:09;;;;;;;11.80;6.82;;;13.50;99.90;;;;;;5133711;27;20039;-73
2023/05/18 00:07:36;;;;;;;16.17;6.82;;;13.50;99.90;;;;;;5084037;28;20568;-72
2023/05/18 00:10:04;;;;;;;10.48;6.53;;;13.40;99.90;;;;;;5101702;28;20082;-72
2023/05/18 00:12:33;;;;;;;11.90;6.72;;;13.40;99.90;;;;;;5113062;28;20051;-72
2023/05/18 00:15:01;;;;;;;14.73;6.60;;;13.40;99.90;;;;;;5112574;28;20156;-73
2023/05/18 00:17:34;;;;;;;16.88;6.65;;;13.30;99.90;;;;;;5094230;28;20403;-73
2023/05/18 00:20:03;;;;;;;7.95;5.68;;;13.30;99.90;;;;;;5111014;28;20047;-73
2023/05/18 00:22:32;;;;;;;14.05;6.40;;;13.30;99.90;;;;;;5105277;28;20060;-72
2023/05/18 00:24:59;;;;;;;8.25;6.20;;;13.30;99.90;;;;;;5112037;28;20043;-72
2023/05/18 00:27:27;;;;;;;11.00;5.90;;;13.30;99.90;;;;;;5109828;28;21665;-72
2023/05/18 00:29:54;;;;;;;10.27;5.15;;;13.20;99.90;;;;;;5110550;28;20051;-72
2023/05/18 00:32:23;;;;;;;11.45;5.50;;;13.20;99.90;;;;;;5093237;28;20051;-72
2023/05/18 00:34:52;;;;;;;11.10;5.03;;;13.20;99.90;;;;;;5109376;28;20051;-73
2023/05/18 00:37:19;;;;;;;11.95;5.15;;;13.10;99.90;;;;;;5076138;28;20039;-73
2023/05/18 00:39:47;;;;;;;10.77;5.15;;;13.10;99.90;;;;;;5111366;28;20123;-73
2023/05/18 00:42:14;;;;;;;6.53;4.63;;;13.10;99.90;;;;;;5060534;28;20048;-74
2023/05/18 00:44:41;;;;;;;12.95;5.68;;;13.10;99.90;;;;;;5072216;28;20067;-73
2023/05/18 00:47:10;;;;;;;11.23;5.75;;;13.10;99.90;;;;;;5102801;28;20055;-74
2023/05/18 00:49:40;;;;;;;10.85;5.88;;;13.10;99.90;;;;;;5081776;28;20231;-74
2023/05/18 00:52:07;;;;;;;10.20;5.65;;;13.10;99.90;;;;;;5104392;28;20538;-73
2023/05/18 00:54:35;;;;;;;6.78;5.25;;;13.10;99.90;;;;;;5094941;28;20083;-76
2023/05/18 00:57:04;;;;;;;9.82;5.13;;;13.00;99.90;;;;;;5089722;28;20105;-73
2023/05/18 00:59:31;;;;;;;9.00;5.03;;;13.00;99.90;;;;;;5112651;27;20484;-73
2023/05/18 01:02:00;;;;;;;10.65;4.80;;;13.00;99.90;;;;;;5111236;27;20133;-73
2023/05/18 01:04:30;;;;;;;11.02;4.72;;;13.00;99.90;;;;;;5103443;28;20043;-73
2023/05/18 01:07:05;;;;;;;10.05;5.10;;;13.00;99.90;;;;;;5093880;28;20135;-73
2023/05/18 01:09:33;;;;;;;9.52;4.07;;;13.00;99.90;;;;;;5111395;28;20134;-72
2023/05/18 01:12:09;;;;;;;10.10;4.47;;;13.00;99.90;;;;;;5093810;28;20074;-73
2023/05/18 01:14:49;;;;;;;13.75;4.18;;;12.90;99.90;;;;;;5110718;28;20793;-73
2023/05/18 01:17:38;;;;;;;7.80;4.68;;;12.80;99.90;;;;;;5085190;28;20052;-73
2023/05/18 01:20:32;;;;;;;9.18;4.15;;;12.80;99.90;;;;;;5074877;28;20048;-73
2023/05/18 01:23:24;;;;;;;8.70;4.07;;;12.80;99.90;;;;;;5102622;28;20051;-73
2023/05/18 01:26:14;;;;;;;8.82;3.67;;;12.70;99.90;;;;;;5082906;28;20097;-73
2023/05/18 01:28:46;;;;;;;7.72;3.05;;;12.70;99.90;;;;;;5095678;28;20048;-73
2023/05/18 01:31:14;;;;;;;8.45;3.78;;;12.70;99.90;;;;;;5074088;28;20036;-74
2023/05/18 01:33:43;;;;;;;8.80;3.75;;;12.60;99.90;;;;;;5091153;28;20044;-73
2023/05/18 01:36:11;;;;;;;7.90;2.95;;;12.50;99.90;;;;;;5112386;28;20563;-73
2023/05/18 01:38:39;;;;;;;9.43;2.70;;;12.50;99.90;;;;;;5091892;28;20219;-73
2023/05/18 01:41:16;;;;;;;7.43;2.83;;;12.40;99.90;;;;;;5099530;28;20130;-73
2023/05/18 01:43:52;;;;;;;6.65;2.78;;;12.30;99.90;;;;;;5103874;28;20055;-73
2023/05/18 01:46:32;;;;;;;11.38;2.85;;;12.20;99.90;;;;;;5093110;28;20088;-73
2023/05/18 01:49:07;;;;;;;10.38;2.50;;;12.20;99.90;;;;;;5091751;28;20083;-73
2023/05/18 01:51:42;;;;;;;10.60;2.38;;;12.10;99.90;;;;;;5088878;28;20051;-73
2023/05/18 01:54:11;;;;;;;8.30;2.05;;;12.10;99.90;;;;;;5067736;28;20169;-73
2023/05/18 01:56:40;;;;;;;7.13;2.78;;;12.10;99.90;;;;;;5066588;28;20040;-72
2023/05/18 01:59:08;;;;;;;10.02;2.53;;;12.10;99.90;;;;;;5079829;28;20069;-72
2023/05/18 02:01:36;;;;;;;13.88;2.63;;;12.10;99.90;;;;;;5091546;28;20035;-72
2023/05/18 02:04:09;;;;;;;15.70;3.10;;;12.10;99.90;;;;;;5108416;28;20075;-73
2023/05/18 02:06:36;;;;;;;10.73;2.17;;;12.00;99.90;;;;;;5107167;28;20044;-72
2023/05/18 02:09:05;;;;;;;8.27;2.22;;;12.00;99.90;;;;;;5082312;28;20072;-78
2023/05/18 02:11:33;;;;;;;9.73;2.03;;;12.00;99.90;;;;;;5092682;28;20047;-79
2023/05/18 02:14:02;;;;;;;13.32;3.53;;;12.00;99.90;;;;;;5092643;28;20051;-78
2023/05/18 02:16:30;;;;;;;5.75;1.80;;;12.00;99.90;;;;;;5061734;28;20147;-79
2023/05/18 02:18:59;;;;;;;12.15;2.33;;;12.00;99.90;;;;;;5076871;28;20055;-78
2023/05/18 02:21:26;;;;;;;9.98;2.92;;;11.90;99.90;;;;;;5073892;28;20487;-78
2023/05/18 02:23:54;;;;;;;7.75;2.38;;;11.90;99.90;;;;;;5110674;28;20075;-78
2023/05/18 02:26:22;;;;;;;11.80;2.17;;;11.90;99.90;;;;;;5092560;28;20066;-79
2023/05/18 02:28:53;;;;;;;8.25;2.17;;;11.90;99.90;;;;;;5098200;28;20045;-78
2023/05/18 02:31:22;;;;;;;5.00;2.03;;;11.90;99.90;;;;;;5078974;28;20163;-77
2023/05/18 02:33:50;;;;;;;12.23;2.75;;;11.80;99.90;;;;;;5092630;28;20047;-78
2023/05/18 02:36:21;;;;;;;19.90;8.15;;;11.90;99.90;;;;;;5088715;28;20063;-79
2023/05/18 02:38:49;;;;;;;15.10;5.53;;;11.80;99.90;;;;;;5066115;28;20044;-78
2023/05/18 02:41:16;;;;;;;23.23;6.10;;;11.80;99.90;;;;;;5100265;28;20060;-76
2023/05/18 02:43:44;;;;;;;25.45;9.73;;;11.70;99.90;;;;;;5073370;28;20066;-79
2023/05/18 02:46:11;;;;;;;23.55;10.23;;;11.70;99.90;;;;;;5108121;28;20490;-78
2023/05/18 02:48:44;;;;;;;12.32;5.20;;;11.60;99.90;;;;;;5058239;28;20048;-78
2023/05/18 02:51:13;;;;;;;19.38;6.05;;;11.50;99.90;;;;;;5110813;28;20047;-79
2023/05/18 02:53:42;;;;;;;38.72;17.17;;;11.50;99.90;;;;;;5092008;28;20070;-78
2023/05/18 02:56:13;;;;;;;22.48;9.63;;;11.50;99.90;;;;;;5066799;28;20059;-78
2023/05/18 02:58:47;;;;;;;19.73;8.63;;;11.50;99.90;;;;;;5095844;28;20142;-78
2023/05/18 03:01:25;;;;;;;16.38;6.65;;;11.50;99.90;;;;;;5101562;27;20048;-78
2023/05/18 03:03:56;;;;;;;25.02;9.65;;;11.40;99.90;;;;;;5088589;28;20047;-79
2023/05/18 03:06:25;;;;;;;24.17;8.48;;;11.50;99.90;;;;;;5093158;28;20044;-78
2023/05/18 03:08:53;;;;;;;14.60;6.13;;;11.40;99.90;;;;;;5097473;28;20044;-77
2023/05/18 03:11:25;;;;;;;12.77;2.55;;;11.40;99.90;;;;;;5085338;28;20044;-77
2023/05/18 03:13:53;;;;;;;6.63;2.20;;;11.40;99.90;;;;;;5067525;28;20105;-78
2023/05/18 03:16:26;;;;;;;10.93;2.08;;;11.30;99.90;;;;;;5062906;28;20143;-79
2023/05/18 03:18:57;;;;;;;;;;;11.30;99.90;;;;;;5080744;28;20050;-78
2023/05/18 03:21:32;;;;;;;7.90;2.65;;;11.40;99.90;;;;;;5084418;28;19924;-78
2023/05/18 03:24:01;;;;;;;11.15;3.45;;;11.40;99.90;;;;;;5084149;28;20050;-78
2023/05/18 03:26:30;;;;;;;12.70;4.47;;;11.30;99.90;;;;;;5062730;28;20035;-78
2023/05/18 03:29:00;;;;;;;18.23;6.90;;;11.30;99.90;;;;;;5079560;28;20401;-76
2023/05/18 03:31:27;;;;;;;11.70;3.53;;;11.30;99.90;;;;;;5095422;28;20096;-78
2023/05/18 03:33:59;;;;;;;19.60;8.70;;;11.40;99.90;;;;;;5090978;28;20052;-78
2023/05/18 03:36:26;;;;;;;39.60;17.35;;;11.40;99.90;;;;;;5083461;28;20048;-79
2023/05/18 03:38:54;;;;;;;33.53;13.38;;;11.50;99.90;;;;;;5077604;28;20054;-77
2023/05/18 03:41:22;;;;;;;36.13;13.23;;;11.50;99.90;;;;;;5075784;28;20083;-76
2023/05/18 03:43:50;;;;;;;38.30;14.25;;;11.50;99.90;;;;;;5092074;28;20071;-79
2023/05/18 03:46:17;;;;;;;43.58;13.95;;;11.50;99.90;;;;;;5099901;28;20050;-80
2023/05/18 03:48:45;;;;;;;45.13;16.73;;;11.40;99.90;;;;;;5076609;28;20039;-79
2023/05/18 03:51:16;;;;;;;50.38;16.08;;;11.40;99.90;;;;;;5084924;27;20569;-79
2023/05/18 03:53:44;;;;;;;22.23;7.30;;;11.30;99.90;;;;;;5103538;28;20051;-79
2023/05/18 03:56:12;;;;;;;8.68;2.80;;;11.30;99.90;;;;;;5092498;28;20042;-77
2023/05/18 03:58:41;;;;;;;18.63;5.63;;;11.20;99.90;;;;;;5090733;28;20050;-78
2023/05/18 04:01:08;;;;;;;23.88;8.38;;;11.10;99.90;;;;;;5093240;28;20047;-79
2023/05/18 04:03:36;;;;;;;54.30;17.50;;;11.00;99.90;;;;;;5082762;28;20052;-78
2023/05/18 04:06:09;;;;;;;37.15;13.23;;;11.00;99.90;;;;;;5114470;28;20040;-73
2023/05/18 04:08:40;;;;;;;24.35;9.90;;;10.90;99.90;;;;;;5075230;28;20062;-74
2023/05/18 04:11:08;;;;;;;21.98;7.35;;;10.90;99.90;;;;;;5094384;28;20093;-74
2023/05/18 04:13:38;;;;;;;30.88;10.82;;;10.90;99.90;;;;;;5074079;28;20531;-73
2023/05/18 04:16:06;;;;;;;26.70;8.35;;;10.90;99.90;;;;;;5077377;28;20059;-73
2023/05/18 04:18:35;;;;;;;14.77;4.40;;;10.90;99.90;;;;;;5095439;28;20043;-74
2023/05/18 04:21:05;;;;;;;15.00;3.65;;;10.90;99.90;;;;;;5107864;28;20067;-74
2023/05/18 04:23:37;;;;;;;15.98;3.28;;;10.90;99.90;;;;;;5115209;27;20104;-74
2023/05/18 04:26:08;;;;;;;9.32;3.15;;;11.00;99.90;;;;;;5092707;28;20097;-81
2023/05/18 04:28:37;;;;;;;6.53;2.28;;;11.20;99.90;;;;;;5114939;27;20052;-80
2023/05/18 04:31:05;;;;;;;16.40;3.90;;;11.30;99.90;;;;;;5095454;28;20059;-73
2023/05/18 04:33:33;;;;;;;19.05;6.35;;;11.30;99.90;;;;;;5075002;28;20423;-81
2023/05/18 04:36:03;;;;;;;23.42;7.82;;;11.30;99.90;;;;;;5076237;28;20047;-79
2023/05/18 04:38:33;;;;;;;22.23;8.13;;;11.40;99.90;;;;;;5095313;28;20055;-80
2023/05/18 04:41:07;;;;;;;13.73;5.50;;;11.30;99.90;;;;;;5090341;28;20039;-78
2023/05/18 04:43:41;;;;;;;15.07;4.78;;;11.30;99.90;;;;;;5094678;27;20192;-81
2023/05/18 04:46:12;;;;;;;7.63;2.93;;;11.20;99.90;;;;;;5077328;28;20059;-81
2023/05/18 04:48:41;;;;;;;9.18;3.55;;;11.30;99.90;;;;;;5078886;28;20044;-81
2023/05/18 04:51:24;;;;;;;9.02;3.85;;;11.40;99.90;;;;;;5113976;28;20083;-75
2023/05/18 04:53:59;;;;;;;23.02;5.68;;;11.60;99.90;;;;;;5095291;28;20508;-79
2023/05/18 04:56:26;;;;;;;12.52;5.20;;;11.80;99.90;;;;;;5074988;28;20059;-79
2023/05/18 04:58:58;;;;;;;18.10;5.05;;;12.00;99.90;;;;;;5081365;28;20084;-82
2023/05/18 05:01:26;;;;;;;11.52;2.88;;;12.10;99.90;;;;;;5084669;28;20051;-81
2023/05/18 05:03:59;;;;;;;10.98;2.90;;;12.10;99.90;;;;;;5111792;28;20043;-80
2023/05/18 05:06:27;;;;;;;13.25;4.45;;;12.10;99.90;;;;;;5093641;28;20112;-79
2023/05/18 05:08:55;;;;;;;8.70;3.22;;;12.20;99.90;;;;;;5110217;28;20047;-76
2023/05/18 05:11:23;;;;;;;7.53;2.97;;;12.20;99.90;;;;;;5065552;28;20142;-80
2023/05/18 05:13:50;;;;;;;9.77;3.53;;;12.20;99.90;;;;;;5098005;28;20055;-74
2023/05/18 05:16:19;;;;;;;8.35;3.15;;;12.20;99.90;;;;;;5075135;28;20056;-74
2023/05/18 05:18:47;;;;;;;11.63;2.63;;;12.20;99.90;;;;;;5108311;28;20086;-73
2023/05/18 05:21:14;;;;;;;6.07;2.85;;;12.10;99.90;;;;;;5106784;28;20085;-77
2023/05/18 05:23:44;;;;;;;6.80;2.03;;;12.10;99.90;;;;;;5090272;28;20056;-77
2023/05/18 05:26:12;;;;;;;6.95;2.53;;;12.10;99.90;;;;;;5073315;28;20108;-78
2023/05/18 05:28:40;;;;;;;11.82;2.00;;;11.90;99.90;;;;;;5109263;28;20108;-77
2023/05/18 05:31:08;;;;;;;8.35;2.00;;;11.80;99.90;;;;;;5090754;28;20051;-76
2023/05/18 05:33:39;;;;;;;13.57;2.63;;;11.80;99.90;;;;;;5091078;28;20054;-76
2023/05/18 05:36:09;;;;;;;8.27;2.20;;;12.20;99.90;;;;;;5110631;28;20055;-79
2023/05/18 05:38:37;;;;;;;6.85;2.42;;;12.70;99.90;;;;;;5086999;28;20040;-77
2023/05/18 05:41:05;;;;;;;4.90;1.60;;;12.90;99.90;;;;;;5072126;28;20043;-77
2023/05/18 05:43:34;;;;;;;6.30;1.88;;;13.20;99.90;;;;;;5092036;28;20043;-77
2023/05/18 05:46:02;;;;;;;6.60;2.17;;;13.60;99.90;;;;;;5075478;28;20078;-77
2023/05/18 05:48:29;;;;;;;7.78;2.35;;;14.00;99.90;;;;;;5071137;28;20096;-77
2023/05/18 05:50:58;;;;;;;8.25;2.15;;;14.50;99.90;;;;;;5092533;28;20515;-77
2023/05/18 05:53:28;;;;;;;6.10;2.20;;;14.50;99.90;;;;;;5092740;28;20063;-77
2023/05/18 05:55:56;;;;;;;6.22;1.50;;;14.10;99.90;;;;;;5090672;28;20138;-77
2023/05/18 05:58:24;;;;;;;5.93;1.67;;;13.50;99.90;;;;;;5071754;28;20040;-77
2023/05/18 06:00:56;;;;;;;9.38;2.13;;;13.00;99.90;;;;;;5075484;28;20047;-77
2023/05/18 06:03:23;;;;;;;4.88;1.88;;;12.70;99.90;;;;;;5080240;28;20047;-77
2023/05/18 06:05:51;;;;;;;6.78;1.90;;;12.60;99.90;;;;;;5076392;28;20538;-77
2023/05/18 06:08:24;;;;;;;10.60;2.80;;;12.60;99.90;;;;;;5074639;28;20067;-78
2023/05/18 06:10:52;;;;;;;5.95;1.48;;;12.60;99.90;;;;;;5105375;28;20051;-78
2023/05/18 06:13:19;;;;;;;8.05;1.63;;;12.60;99.90;;;;;;5072840;28;20124;-78
2023/05/18 06:15:50;;;;;;;4.88;1.65;;;12.60;99.90;;;;;;5073372;28;20039;-77
2023/05/18 06:18:18;;;;;;;9.35;1.08;;;12.60;99.90;;;;;;5088487;28;20405;-77
2023/05/18 06:20:46;;;;;;;5.95;1.13;;;12.50;99.90;;;;;;5106216;28;20077;-78
2023/05/18 06:23:21;;;;;;;7.90;1.10;;;12.50;99.90;;;;;;5105194;28;20296;-77
2023/05/18 06:26:06;;;;;;;3.33;1.15;;;13.00;99.90;;;;;;5087296;28;20419;-77
2023/05/18 06:28:56;;;;;;;2.72;0.68;;;14.00;99.90;;;;;;5087903;28;20499;-77
2023/05/18 06:31:35;;;;;;;2.05;0.60;;;14.60;99.90;;;;;;5088435;28;20514;-77
2023/05/18 06:34:09;;;;;;;1.40;0.57;;;14.40;99.90;;;;;;5086243;28;20040;-78
2023/05/18 06:36:37;;;;;;;4.60;0.75;;;14.70;99.90;;;;;;5113916;28;20067;-77
2023/05/18 06:39:05;;;;;;;7.07;1.10;;;15.50;99.90;;;;;;5107805;28;20075;-74
2023/05/18 06:41:35;;;;;;;5.20;0.70;;;16.40;99.90;;;;;;5105988;28;20097;-75
2023/05/18 06:44:03;;;;;;;1.15;0.50;;;16.50;97.50;;;;;;5086789;28;20065;-74
2023/05/18 06:46:36;;;;;;;2.15;0.88;;;16.10;96.70;;;;;;5105193;28;20427;-74
2023/05/18 06:49:10;;;;;;;2.40;0.80;;;15.70;97.40;;;;;;5085309;28;20066;-74
2023/05/18 06:51:37;;;;;;;3.17;0.50;;;15.40;97.70;;;;;;5084475;28;20050;-75
2023/05/18 06:54:07;;;;;;;4.55;0.55;;;15.00;99.40;;;;;;5085869;28;20090;-74
2023/05/18 06:56:36;;;;;;;0.70;0.70;;;14.90;99.90;;;;;;5086510;28;20040;-74
2023/05/18 06:59:04;;;;;;;2.13;0.70;;;14.90;99.90;;;;;;5105041;28;20075;-74
2023/05/18 07:01:32;;;;;;;2.95;0.90;;;14.70;99.90;;;;;;5024632;28;20071;-74
2023/05/18 07:04:02;;;;;;;3.85;0.73;;;14.60;99.90;;;;;;5086918;28;20050;-74
2023/05/18 07:06:30;;;;;;;6.72;0.63;;;14.40;99.90;;;;;;5106952;28;20576;-73
2023/05/18 07:08:57;;;;;;;2.58;0.80;;;14.40;99.90;;;;;;5072365;28;20052;-74
2023/05/18 07:11:24;;;;;;;6.40;1.08;;;14.60;99.90;;;;;;5106633;28;20044;-74
2023/05/18 07:13:53;;;;;;;2.25;0.47;;;14.60;99.90;;;;;;5089222;28;20062;-74
2023/05/18 07:16:21;;;;;;;1.38;0.50;;;14.50;99.90;;;;;;5102883;28;20043;-73
2023/05/18 07:18:48;;;;;;;3.38;0.63;;;14.40;99.90;;;;;;5103528;28;20049;-73
2023/05/18 07:21:16;;;;;;;7.85;0.90;;;14.10;99.90;;;;;;5108631;28;20052;-73
2023/05/18 07:23:43;;;;;;;3.45;0.88;;;14.10;99.90;;;;;;5108863;28;20040;-74
2023/05/18 07:26:11;;;;;;;2.92;0.80;;;14.70;99.90;;;;;;5090902;28;20142;-77
2023/05/18 07:28:39;;;;;;;3.65;0.60;;;15.10;99.90;;;;;;5073402;28;20666;-77
2023/05/18 07:31:08;;;;;;;1.98;0.65;;;15.20;99.90;;;;;;5109167;28;20071;-77
2023/05/18 07:33:35;;;;;;;4.15;0.70;;;15.30;99.90;;;;;;5090725;28;20192;-77
2023/05/18 07:36:03;;;;;;;4.68;0.90;;;15.00;99.90;;;;;;5090766;28;20487;-78
2023/05/18 07:38:30;;;;;;;3.13;1.45;;;14.70;99.90;;;;;;5086688;28;20123;-77
2023/05/18 07:41:00;;;;;;;3.05;0.85;;;14.90;99.90;;;;;;5072217;28;20579;-76
2023/05/18 07:43:34;;;;;;;3.25;0.77;;;15.50;99.90;;;;;;5105045;28;20047;-77
2023/05/18 07:46:02;;;;;;;1.45;0.55;;;16.10;99.90;;;;;;5128064;27;20043;-77
2023/05/18 07:48:31;;;;;;;3.28;0.80;;;15.80;99.90;;;;;;5112563;28;20079;-76
2023/05/18 07:50:58;;;;;;;6.05;0.50;;;15.70;99.90;;;;;;5089440;28;20052;-78
2023/05/18 07:53:27;;;;;;;3.58;0.70;;;15.50;99.90;;;;;;5093018;28;20052;-77
2023/05/18 07:55:55;;;;;;;4.38;0.82;;;15.40;99.90;;;;;;5076556;28;20047;-77
2023/05/18 07:58:22;;;;;;;3.60;0.80;;;15.70;99.90;;;;;;5111209;27;20244;-77
2023/05/18 08:00:50;;;;;;;5.45;0.95;;;16.40;99.90;;;;;;5112218;28;20499;-78
2023/05/18 08:03:18;;;;;;;4.55;0.52;;;16.40;99.90;;;;;;5093651;28;20367;-78
2023/05/18 08:05:47;;;;;;;4.28;0.93;;;16.60;99.90;;;;;;5109023;27;20437;-78
2023/05/18 08:08:15;;;;;;;1.08;0.65;;;16.80;98.90;;;;;;5108067;28;20043;-77
2023/05/18 08:10:42;;;;;;;2.95;0.75;;;16.70;98.20;;;;;;5111498;27;20043;-77
2023/05/18 08:13:10;;;;;;;4.38;0.77;;;17.00;99.90;;;;;;5108431;28;20058;-78
2023/05/18 08:15:40;;;;;;;2.45;0.30;;;18.20;97.20;;;;;;5110354;27;20120;-72
2023/05/18 08:18:07;;;;;;;2.25;0.77;;;18.30;94.00;;;;;;5108231;27;20044;-72
2023/05/18 08:20:35;;;;;;;3.33;0.82;;;17.80;94.70;;;;;;5072084;28;20447;-72
2023/05/18 08:23:04;;;;;;;6.43;0.88;;;17.40;95.90;;;;;;5105648;28;20043;-73
2023/05/18 08:25:31;;;;;;;2.50;0.40;;;17.20;93.80;;;;;;5111251;28;20527;-73
2023/05/18 08:27:59;;;;;;;1.85;0.77;;;16.70;94.10;;;;;;5096481;28;20048;-73
2023/05/18 08:30:27;;;;;;;0.95;0.60;;;16.80;96.50;;;;;;5098449;28;20515;-72
2023/05/18 08:32:55;;;;;;;1.77;0.43;;;17.50;93.20;;;;;;5108574;28;20051;-78
2023/05/18 08:35:23;;;;;;;0.65;0.63;;;18.30;90.50;;;;;;5110781;27;20116;-77
2023/05/18 08:37:50;;;;;;;3.20;0.77;;;18.30;88.00;;;;;;5111337;28;20674;-78
2023/05/18 08:40:19;;;;;;;2.42;0.57;;;18.20;89.70;;;;;;5110761;28;20165;-78
2023/05/18 08:42:52;;;;;;;6.82;0.93;;;18.30;88.20;;;;;;5110987;27;20058;-76
2023/05/18 08:45:30;;;;;;;1.95;0.60;;;19.00;90.10;;;;;;5107308;28;20069;-78
2023/05/18 08:48:00;;;;;;;1.83;0.63;;;19.40;86.60;;;;;;5110852;27;20059;-76
2023/05/18 08:50:32;;;;;;;2.92;0.55;;;19.60;85.50;;;;;;5099133;28;20508;-77
2023/05/18 08:53:02;;;;;;;0.60;0.50;;;19.90;83.50;;;;;;5110755;28;20109;-77
2023/05/18 08:55:35;;;;;;;5.90;0.70;;;20.30;82.50;;;;;;5102297;27;20047;-77
2023/05/18 08:58:06;;;;;;;3.70;0.60;;;21.00;79.90;;;;;;5090867;28;20052;-78
2023/05/18 09:00:33;;;;;;;2.45;1.00;;;21.20;76.70;;;;;;5103741;28;20131;-77
2023/05/18 09:03:02;;;;;;;5.85;2.45;;;21.40;72.90;;;;;;5109224;28;20134;-73
2023/05/18 09:05:30;;;;;;;3.10;0.75;;;21.60;70.50;;;;;;5109108;28;20066;-74
2023/05/18 09:07:58;;;;;;;1.13;0.68;;;22.10;69.30;;;;;;5109985;28;20079;-77
2023/05/18 09:10:26;;;;;;;3.85;0.63;;;22.70;67.90;;;;;;5079815;28;20046;-77
2023/05/18 09:12:56;;;;;;;3.17;0.50;;;23.50;65.20;;;;;;5109791;28;20059;-78
2023/05/18 09:15:25;;;;;;;2.33;0.55;;;24.10;61.00;;;;;;5099028;28;20047;-78
2023/05/18 09:17:52;;;;;;;4.97;0.60;;;24.30;61.60;;;;;;5110395;28;20098;-80
2023/05/18 09:20:20;;;;;;;5.03;0.55;;;24.90;59.40;;;;;;5074380;28;20140;-78
2023/05/18 09:22:50;;;;;;;3.10;0.40;;;25.20;57.10;;;;;;5053953;28;20047;-79
2023/05/18 09:25:18;;;;;;;1.67;0.90;;;25.50;56.40;;;;;;5088769;27;20044;-79
2023/05/18 09:27:50;;;;;;;2.63;1.08;;;25.60;55.40;;;;;;5104128;27;20511;-79
2023/05/18 09:30:19;;;;;;;3.00;0.88;;;26.10;55.60;;;;;;5103285;27;20047;-77
2023/05/18 09:32:47;;;;;;;4.10;0.60;;;26.60;53.70;;;;;;5110326;28;20058;-78
2023/05/18 09:35:16;;;;;;;3.60;0.57;;;26.70;52.60;;;;;;5109737;28;20063;-80
2023/05/18 09:37:43;;;;;;;3.00;0.32;;;26.70;52.40;;;;;;5109694;28;20093;-78
2023/05/18 09:40:11;;;;;;;3.28;0.60;;;26.80;52.00;;;;;;5105543;27;20580;-78
2023/05/18 09:42:40;;;;;;;1.88;0.52;;;26.90;51.20;;;;;;5103581;28;20135;-72
2023/05/18 09:45:18;;;;;;;1.45;0.50;;;27.30;50.90;;;;;;5107565;27;20134;-73
2023/05/18 09:47:50;;;;;;;4.22;0.43;;;27.40;50.20;;;;;;5106377;28;20051;-75
2023/05/18 09:50:19;;;;;;;0.75;0.40;;;27.40;50.30;;;;;;5108086;28;20047;-74
2023/05/18 09:52:48;;;;;;;7.60;0.88;;;27.30;51.10;;;;;;5107475;27;20052;-72
2023/05/18 09:55:17;;;;;;;2.63;1.80;;;27.40;49.90;;;;;;5089915;28;20051;-74
2023/05/18 09:57:46;;;;;;;0.90;0.40;;;27.00;49.40;;;;;;5105193;28;20618;-73
2023/05/18 10:00:17;;;;;;;6.82;0.60;;;26.90;49.00;;;;;;5100178;27;20576;-74
2023/05/18 10:02:51;;;;;;;1.15;0.50;;;26.80;50.70;;;;;;5108370;28;20131;-74
2023/05/18 10:05:20;;;;;;;1.73;0.30;;;26.90;49.50;;;;;;5109682;28;20055;-75
2023/05/18 10:07:54;;;;;;;5.65;0.70;;;26.30;50.10;;;;;;5074770;28;20104;-74
2023/05/18 10:10:26;;;;;;;0.95;0.50;;;25.90;49.90;;;;;;5110674;28;20052;-74
2023/05/18 10:12:54;;;;;;;0.63;0.50;;;25.90;48.30;;;;;;5090599;28;20079;-75
2023/05/18 10:15:23;;;;;;;5.40;0.70;;;26.10;49.50;;;;;;5112522;27;20039;-75
2023/05/18 10:17:57;;;;;;;2.92;0.70;;;26.40;49.10;;;;;;5111710;27;20164;-74
2023/05/18 10:20:27;;;;;;;6.82;0.60;;;26.50;49.70;;;;;;5096423;28;20047;-73
2023/05/18 10:22:58;;;;;;;8.68;0.85;;;26.60;48.70;;;;;;5091156;28;20052;-74
2023/05/18 10:25:27;;;;;;;5.05;0.55;;;26.20;47.90;;;;;;5102238;28;20071;-74
2023/05/18 10:27:58;;;;;;;6.18;0.70;;;26.20;48.90;;;;;;5091488;28;20056;-78
2023/05/18 10:30:27;;;;;;;6.25;0.65;;;26.40;47.60;;;;;;5082762;28;20515;-78
2023/05/18 10:32:58;;;;;;;11.57;1.13;;;26.70;47.00;;;;;;5105523;28;20055;-79
2023/05/18 10:35:30;;;;;;;7.00;0.70;;;27.10;46.20;;;;;;5120841;28;20051;-80
2023/05/18 10:37:59;;;;;;;5.22;0.95;;;27.30;45.10;;;;;;5110370;28;20130;-78
2023/05/18 10:40:28;;;;;;;10.68;0.85;;;27.10;45.30;;;;;;5109424;28;20462;-80
2023/05/18 10:42:58;;;;;;;11.75;0.90;;;27.10;45.20;;;;;;5090915;28;20039;-78
2023/05/18 10:45:27;;;;;;;3.03;0.60;;;27.00;44.50;;;;;;5104499;28;20052;-74
2023/05/18 10:47:57;;;;;;;3.47;0.80;;;27.00;45.10;;;;;;5104665;28;20043;-74
2023/05/18 10:50:26;;;;;;;3.97;0.85;;;27.10;43.80;;;;;;5091320;28;20051;-74
2023/05/18 10:52:54;;;;;;;8.43;0.60;;;26.90;44.50;;;;;;5108098;28;23277;-79
2023/05/18 10:55:22;;;;;;;10.45;3.30;;;26.90;44.20;;;;;;5108207;28;20058;-78
2023/05/18 10:57:54;;;;;;;6.05;1.80;;;27.20;45.20;;;;;;5088146;28;20443;-79
2023/05/18 11:00:21;;;;;;;10.40;0.98;;;27.60;44.40;;;;;;5087871;28;20048;-78
2023/05/18 11:02:50;;;;;;;6.63;0.50;;;28.00;43.40;;;;;;5104279;28;20051;-73
2023/05/18 11:05:25;;;;;;;8.20;0.70;;;28.30;42.20;;;;;;5098565;28;20504;-73
2023/05/18 11:08:03;;;;;;;3.88;0.50;;;28.50;42.30;;;;;;5106614;28;20051;-75
2023/05/18 11:10:37;;;;;;;7.63;0.93;;;28.80;43.10;;;;;;5107112;28;20055;-73
2023/05/18 11:13:05;;;;;;;2.35;0.73;;;28.70;42.10;;;;;;5108648;28;20415;-73
2023/05/18 11:16:07;;;;;;;2.22;0.63;;;28.80;41.00;;;;;;5106340;28;20047;-79
2023/05/18 11:18:44;;;;;;;6.75;1.27;;;28.60;41.70;;;;;;5113292;28;20151;-79
2023/05/18 11:21:55;;;;;;;2.83;0.65;;;28.70;41.70;;;;;;5113330;28;20052;-76
2023/05/18 11:24:25;;;;;;;13.13;1.65;;;29.30;42.00;;;;;;5112443;28;20048;-79
2023/05/18 11:26:54;;;;;;;8.02;0.80;;;29.70;41.60;;;;;;5110417;27;20078;-79
2023/05/18 11:29:24;;;;;;;7.38;1.10;;;29.80;40.90;;;;;;5112242;28;20043;-78
2023/05/18 11:31:54;;;;;;;3.50;0.85;;;30.00;41.00;;;;;;5110376;28;20055;-79
2023/05/18 11:34:43;;;;;;;10.25;1.35;;;29.80;39.50;;;;;;5094575;28;20044;-77
2023/05/18 11:37:14;;;;;;;10.88;1.00;;;29.60;40.40;;;;;;5113485;28;20047;-81
2023/05/18 11:39:42;;;;;;;8.02;1.00;;;29.40;40.60;;;;;;5112546;28;20047;-79
2023/05/18 11:42:13;;;;;;;4.30;0.90;;;29.60;40.60;;;;;;5093223;28;20531;-79
2023/05/18 11:44:41;;;;;;;7.05;1.10;;;29.60;39.50;;;;;;5113124;28;20445;-79
2023/05/18 11:47:11;;;;;;;4.57;0.70;;;29.40;40.30;;;;;;5112073;28;20056;-78
2023/05/18 11:49:44;;;;;;;27.35;1.38;;;29.50;40.50;;;;;;5094774;28;20047;-82
2023/05/18 11:52:19;;;;;;;12.13;1.23;;;29.60;39.90;;;;;;5111765;28;20048;-79
2023/05/18 11:54:51;;;;;;;5.68;0.93;;;29.60;40.40;;;;;;5102587;28;20100;-79
2023/05/18 11:57:21;;;;;;;6.68;0.80;;;29.80;40.60;;;;;;5111180;28;20155;-79
2023/05/18 11:59:55;;;;;;;5.22;2.20;;;30.00;39.70;;;;;;5107539;28;20051;-79
2023/05/18 12:02:28;;;;;;;4.97;1.17;;;29.70;40.00;;;;;;5112624;28;20118;-78
2023/05/18 12:05:03;;;;;;;2.45;0.60;;;29.60;39.80;;;;;;5112598;28;20067;-75
2023/05/18 12:07:33;;;;;;;4.95;0.90;;;29.50;40.80;;;;;;5111768;28;20135;-74
2023/05/18 12:10:03;;;;;;;6.25;1.08;;;29.50;40.90;;;;;;5111610;28;20454;-73
2023/05/18 12:12:31;;;;;;;5.05;0.80;;;29.80;40.70;;;;;;5112369;28;20044;-75
2023/05/18 12:15:01;;;;;;;3.95;0.93;;;30.20;40.90;;;;;;5089281;28;20174;-75
2023/05/18 12:17:39;;;;;;;4.53;0.93;;;30.40;40.40;;;;;;5108542;27;20047;-74
2023/05/18 12:20:11;;;;;;;5.70;1.20;;;30.60;41.00;;;;;;5110792;28;20039;-75
2023/05/18 12:22:41;;;;;;;7.03;1.00;;;30.40;40.90;;;;;;5112581;27;20143;-75
2023/05/18 12:25:09;;;;;;;10.10;1.00;;;30.40;41.00;;;;;;5111104;27;20552;-81
2023/05/18 12:27:39;;;;;;;5.55;1.08;;;30.40;40.70;;;;;;5108194;27;20095;-82
2023/05/18 12:30:11;;;;;;;5.13;1.10;;;30.20;40.80;;;;;;5102290;27;20509;-81
2023/05/18 12:32:42;;;;;;;3.45;1.00;;;29.90;40.80;;;;;;5106504;27;20416;-81
2023/05/18 12:35:13;;;;;;;9.23;1.00;;;30.10;40.20;;;;;;5110467;27;20055;-82
2023/05/18 12:38:07;;;;;;;5.03;0.90;;;30.20;40.30;;;;;;5088560;28;20043;-81
2023/05/18 12:40:46;;;;;;;4.80;1.70;;;30.00;40.30;;;;;;5102649;27;20328;-81
2023/05/18 12:43:23;;;;;;;6.38;1.15;;;30.20;39.50;;;;;;5089811;28;20059;-82
2023/05/18 12:45:58;;;;;;;3.08;0.98;;;30.40;39.40;;;;;;5107637;28;20058;-82
2023/05/18 12:48:26;;;;;;;3.92;0.88;;;30.50;39.10;;;;;;5110579;28;20043;-80
2023/05/18 12:50:54;;;;;;;3.15;0.98;;;30.50;39.40;;;;;;5104151;28;20040;-74
2023/05/18 12:53:23;;;;;;;4.78;1.33;;;30.70;39.70;;;;;;5108183;28;20044;-76
2023/05/18 12:55:57;;;;;;;4.53;0.80;;;30.90;39.60;;;;;;5110968;28;20428;-75
2023/05/18 12:58:25;;;;;;;7.43;0.90;;;30.50;39.30;;;;;;5108463;28;20138;-74